Airfield :
LOGIN :

Register | Disclaimer

   EN    FR    IT 

 










Legend :    VFR   Marginal VFR   IFR   Intensive IFR   Very Intensive IFR
Visi :
Ceiling :
>= 8 km
>= 3000ft
5 to 8 km
1000 to 3000 ft
1500m to 5 km
500 to 1000 ft
800 to 1500m
200 to 500 ft
< 800m
< 200 ft
Symbols :   Thunderstorms  Fog  Heavy snow  Heavy precipitations  Wind > 20 kt
SIGMETs :     Misc.  Thunderstorms  Icing  Turbulence  Mountain Waves  Volcanic Ashes







- Airport Elevation : 935 ft


EBFS - Florennes

CURRENT METAR :
  • 191625Z 33005KT 9999 FEW030 SCT220 15/07 Q1020 BLU BLU

EXPIRED METARs :
  • 191555Z 33004KT 9999 FEW030 SCT220 15/09 Q1020 BLU BLU
  • 191542Z 32004KT 9999 FEW028 SCT220 15/08 Q1020 BLU BLU
  • 191525Z 35006KT 9999 FEW024 SCT026 15/09 Q1020 BLU BLU TEMPO WHT
  • 191455Z 32008KT 9999 FEW024 SCT026 BKN220 15/09 Q1020 BLU BLU TEMPO WHT
  • 191425Z 30007KT 9999 FEW024 SCT026 15/09 Q1020 BLU BLU TEMPO WHT
  • 191355Z 34006KT 9999 FEW024 SCT026 15/09 Q1020 BLU BLU TEMPO WHT

TAF TAF EBFS
Valid from the 19 at 13:00 until the 19 at 22:00 UTC


191147Z 1913/1922 28008KT 9999 SCT015 BKN200
TEMPO 1913/1916 28010KT 4000 -SHRA FEW010 BKN015
No reported NOTAMs for that airfield.



MET'MAP, your aeronautical weather chart ! - Copyright ORBIFLY December 2007 - Disclaimer

ORBIFLY MET'MAP TEAM :

Programming & Development : Alexandra Zaïnal
Concept & Development : Baudouin d'Aumeries
Co-Development & Prog : Marc-Olivier Méhu
Technical & hardware support : Manuel Goepfert

Contact : metmap@orbifly.com




SOURCES & CREDITS :

   NOAA